Time;durP1;ratioP1;P1;durP2;ratioP2;P2;SDS_P1;SDS_P2;PMS_P1;PMS_P2;Temp;Humidity;BMP_temperature;BMP_pressure;BME280_temperature;BME280_humidity;BME280_pressure;Samples;Min_cycle;Max_cycle;Signal;HPM_P1;HPM_P2
2022/06/08 00:00:09;;;;;;;;;;;;;;;;;;4899114;29;8430;-86
2022/06/08 00:02:35;;;;;;;;;;;;;;;;;;4898198;29;8512;-86
2022/06/08 00:05:01;;;;;;;;;;;;;;;;;;4898654;29;7211;-85
2022/06/08 00:07:27;;;;;;;;;;;;;;;;;;4898645;29;7107;-86
2022/06/08 00:09:53;;;;;;;;;;;;;;;;;;4898463;29;8475;-85
2022/06/08 00:12:18;;;;;;;;;;;;;;;;;;4898296;29;8479;-84
2022/06/08 00:14:45;;;;;;;;;;;;;;;;;;4914380;29;8417;-85
2022/06/08 00:17:12;;;;;;;;;;;;;;;;;;4898449;29;8914;-85
2022/06/08 00:19:37;;;;;;;;;;;;;;;;;;4898174;29;8559;-85
2022/06/08 00:22:03;;;;;;;;;;;;;;;;;;4898637;29;8766;-85
2022/06/08 00:24:29;;;;;;;;;;;;;;;;;;4898250;29;7088;-85
2022/06/08 00:26:55;;;;;;;;;;;;;;;;;;4898165;29;8411;-85
2022/06/08 00:29:21;;;;;;;;;;;;;;;;;;4898836;29;8409;-85
2022/06/08 00:31:46;;;;;;;;;;;;;;;;;;4897998;29;8287;-85
2022/06/08 00:34:11;;;;;;;;;;;;;;;;;;4898350;29;8428;-85
2022/06/08 00:36:37;;;;;;;;;;;;;;;;;;4900559;29;7074;-85
2022/06/08 00:39:04;;;;;;;;;;;;;;;;;;4901963;29;8805;-85
2022/06/08 00:41:45;;;;;;;;;;;;;;;;;;4901579;29;8485;-85
2022/06/08 00:44:16;;;;;;;;;;;;;;;;;;4917296;29;7083;-85
2022/06/08 00:46:42;;;;;;;;;;;;;;;;;;4901468;29;8334;-86
2022/06/08 00:49:21;;;;;;;;;;;;;;;;;;4902143;29;8359;-85
2022/06/08 00:51:47;;;;;;;;;;;;;;;;;;4902124;29;7117;-86
2022/06/08 00:54:19;;;;;;;;;;;;;;;;;;4901428;29;8789;-85
2022/06/08 00:56:48;;;;;;;;;;;;;;;;;;4901467;29;8453;-85
2022/06/08 00:59:14;;;;;;;;;;;;;;;;;;4901372;29;8738;-86
2022/06/08 01:01:40;;;;;;;;;;;;;;;;;;4901521;29;8392;-86
2022/06/08 01:04:07;;;;;;;;;;;;;;;;;;4901953;29;7118;-86
2022/06/08 01:06:33;;;;;;;;;;;;;;;;;;4901688;29;7471;-86
2022/06/08 01:08:59;;;;;;;;;;;;;;;;;;4901712;29;7419;-85
2022/06/08 01:11:24;;;;;;;;;;;;;;;;;;4901095;29;8398;-85
2022/06/08 01:13:50;;;;;;;;;;;;;;;;;;4917064;29;7065;-85
2022/06/08 01:16:19;;;;;;;;;;;;;;;;;;4901223;29;7297;-86
2022/06/08 01:18:46;;;;;;;;;;;;;;;;;;4901258;29;7149;-84
2022/06/08 01:21:20;;;;;;;;;;;;;;;;;;4901153;29;8533;-85
2022/06/08 01:23:47;;;;;;;;;;;;;;;;;;4916672;29;7344;-85
2022/06/08 01:26:15;;;;;;;;;;;;;;;;;;4903581;29;8351;-85
2022/06/08 01:28:44;;;;;;;;;;;;;;;;;;4930928;29;8776;-85
2022/06/08 01:31:22;;;;;;;;;;;;;;;;;;4933112;29;7082;-85
2022/06/08 01:33:50;;;;;;;;;;;;;;;;;;4932138;29;7106;-85
2022/06/08 01:36:18;;;;;;;;;;;;;;;;;;4932483;29;8408;-85
2022/06/08 01:39:03;;;;;;;;;;;;;;;;;;4933298;29;8706;-86
2022/06/08 01:41:35;;;;;;;;;;;;;;;;;;4910397;29;8079;-84
2022/06/08 01:44:35;;;;;;;;;;;;;;;;;;4930429;29;8522;-86
2022/06/08 01:47:04;;;;;;;;;;;;;;;;;;4909828;29;8455;-85
2022/06/08 01:49:44;;;;;;;;;;;;;;;;;;4932882;29;8847;-86
2022/06/08 01:52:29;;;;;;;;;;;;;;;;;;4933153;29;7175;-85
2022/06/08 01:54:57;;;;;;;;;;;;;;;;;;4931824;29;7094;-86
2022/06/08 01:57:25;;;;;;;;;;;;;;;;;;4933587;29;8752;-86
2022/06/08 01:59:51;;;;;;;;;;;;;;;;;;4929503;29;7233;-86
2022/06/08 02:02:26;;;;;;;;;;;;;;;;;;4933316;29;8373;-86
2022/06/08 02:04:59;;;;;;;;;;;;;;;;;;4926117;29;7174;-86
2022/06/08 02:07:38;;;;;;;;;;;;;;;;;;4909977;29;7299;-86
2022/06/08 02:10:12;;;;;;;;;;;;;;;;;;4907611;29;8795;-86
2022/06/08 02:12:43;;;;;;;;;;;;;;;;;;4928577;29;6930;-85
2022/06/08 02:15:13;;;;;;;;;;;;;;;;;;4924117;29;8754;-86
2022/06/08 02:17:44;;;;;;;;;;;;;;;;;;4926388;29;7105;-87
2022/06/08 02:20:22;;;;;;;;;;;;;;;;;;4931353;29;8767;-85
2022/06/08 02:23:03;;;;;;;;;;;;;;;;;;4926867;29;7204;-85
2022/06/08 02:25:49;;;;;;;;;;;;;;;;;;4934444;29;7110;-85
2022/06/08 02:28:38;;;;;;;;;;;;;;;;;;4935154;29;8323;-84
2022/06/08 02:31:10;;;;;;;;;;;;;;;;;;4933962;29;8319;-86
2022/06/08 02:36:27;;;;;;;;;;;;;;;;;;4920218;29;7545;-85
2022/06/08 02:41:36;;;;;;;;;;;;;;;;;;5708028;23;6905;-85
2022/06/08 02:44:05;;;;;;;;;;;;;;;;;;4898967;29;8638;-85
2022/06/08 02:46:40;;;;;;;;;;;;;;;;;;4899329;29;7139;-85
2022/06/08 02:49:07;;;;;;;;;;;;;;;;;;4899877;29;8368;-84
2022/06/08 02:51:33;;;;;;;;;;;;;;;;;;4899644;29;8380;-84
2022/06/08 02:54:05;;;;;;;;;;;;;;;;;;4899223;29;7234;-84
2022/06/08 02:56:37;;;;;;;;;;;;;;;;;;4899319;29;8381;-85
2022/06/08 02:59:11;;;;;;;;;;;;;;;;;;4898900;29;7216;-85
2022/06/08 03:01:47;;;;;;;;;;;;;;;;;;4899472;29;6919;-84
2022/06/08 03:04:21;;;;;;;;;;;;;;;;;;4900071;29;8446;-84
2022/06/08 03:06:56;;;;;;;;;;;;;;;;;;4899085;29;7061;-85
2022/06/08 03:09:23;;;;;;;;;;;;;;;;;;4898976;29;8448;-84
2022/06/08 03:12:02;;;;;;;;;;;;;;;;;;4899089;29;7025;-84
2022/06/08 03:14:30;;;;;;;;;;;;;;;;;;4899786;29;7087;-83
2022/06/08 03:17:00;;;;;;;;;;;;;;;;;;4899065;29;8599;-84
2022/06/08 03:19:27;;;;;;;;;;;;;;;;;;4899059;29;7204;-84
2022/06/08 03:21:54;;;;;;;;;;;;;;;;;;4899077;29;7830;-84
2022/06/08 03:24:21;;;;;;;;;;;;;;;;;;4898745;29;8369;-85
2022/06/08 03:26:52;;;;;;;;;;;;;;;;;;4898653;29;8461;-85
2022/06/08 03:29:18;;;;;;;;;;;;;;;;;;4899122;29;8547;-85
2022/06/08 03:31:44;;;;;;;;;;;;;;;;;;4898860;29;8859;-84
2022/06/08 03:34:10;;;;;;;;;;;;;;;;;;4898698;29;7103;-85
2022/06/08 03:36:35;;;;;;;;;;;;;;;;;;4898630;29;8962;-85
2022/06/08 03:39:01;;;;;;;;;;;;;;;;;;4898677;29;7557;-85
2022/06/08 03:41:26;;;;;;;;;;;;;;;;;;4898575;29;8460;-85
2022/06/08 03:43:53;;;;;;;;;;;;;;;;;;4898700;29;8789;-85
2022/06/08 03:46:20;;;;;;;;;;;;;;;;;;4898749;29;7073;-84
2022/06/08 03:48:46;;;;;;;;;;;;;;;;;;4898774;29;8890;-85
2022/06/08 03:51:16;;;;;;;;;;;;;;;;;;4898876;29;7347;-85
2022/06/08 03:53:56;;;;;;;;;;;;;;;;;;4899007;29;7289;-85
2022/06/08 03:56:23;;;;;;;;;;;;;;;;;;4898624;29;8474;-84
2022/06/08 03:58:50;;;;;;;;;;;;;;;;;;4899016;29;7198;-86
2022/06/08 04:01:16;;;;;;;;;;;;;;;;;;4898232;29;7117;-85
2022/06/08 04:03:42;;;;;;;;;;;;;;;;;;4897733;29;8788;-85
2022/06/08 04:06:07;;;;;;;;;;;;;;;;;;4896511;29;7125;-85
2022/06/08 04:08:33;;;;;;;;;;;;;;;;;;4898100;29;7426;-85
2022/06/08 04:10:58;;;;;;;;;;;;;;;;;;4900791;29;8826;-84
2022/06/08 04:13:24;;;;;;;;;;;;;;;;;;4901603;29;7102;-85
2022/06/08 04:15:50;;;;;;;;;;;;;;;;;;4902014;29;7260;-84
2022/06/08 04:18:17;;;;;;;;;;;;;;;;;;4901418;29;7288;-85
2022/06/08 04:20:44;;;;;;;;;;;;;;;;;;4899312;29;7246;-85
2022/06/08 04:23:11;;;;;;;;;;;;;;;;;;4901747;29;7248;-85
2022/06/08 04:25:38;;;;;;;;;;;;;;;;;;4901845;29;8565;-84
2022/06/08 04:28:04;;;;;;;;;;;;;;;;;;4901584;29;7321;-85
2022/06/08 04:30:31;;;;;;;;;;;;;;;;;;4901920;29;8536;-85
2022/06/08 04:32:57;;;;;;;;;;;;;;;;;;4901789;29;8893;-85
2022/06/08 04:35:23;;;;;;;;;;;;;;;;;;4901619;29;8548;-85
2022/06/08 04:37:49;;;;;;;;;;;;;;;;;;4899919;29;8524;-85
2022/06/08 04:40:15;;;;;;;;;;;;;;;;;;4901499;29;8399;-85
2022/06/08 04:42:42;;;;;;;;;;;;;;;;;;4900634;29;7235;-84
2022/06/08 04:45:09;;;;;;;;;;;;;;;;;;4899311;29;8594;-85
2022/06/08 04:47:35;;;;;;;;;;;;;;;;;;4901214;29;7272;-84
2022/06/08 04:50:01;;;;;;;;;;;;;;;;;;4898632;29;7248;-85
2022/06/08 04:52:27;;;;;;;;;;;;;;;;;;4916888;29;7344;-85
2022/06/08 04:54:52;;;;;;;;;;;;;;;;;;4899823;29;7239;-85
2022/06/08 04:57:18;;;;;;;;;;;;;;;;;;4901272;29;8428;-85
2022/06/08 04:59:44;;;;;;;;;;;;;;;;;;4901235;29;7193;-85
2022/06/08 05:02:10;;;;;;;;;;;;;;;;;;4899622;29;8814;-85
2022/06/08 05:04:36;;;;;;;;;;;;;;;;;;4900654;29;7718;-84
2022/06/08 05:07:03;;;;;;;;;;;;;;;;;;4900642;29;7468;-85
2022/06/08 05:09:28;;;;;;;;;;;;;;;;;;4901178;29;8711;-84
2022/06/08 05:11:54;;;;;;;;;;;;;;;;;;4900747;29;9446;-85
2022/06/08 05:14:19;;;;;;;;;;;;;;;;;;4900614;29;7154;-85
2022/06/08 05:16:45;;;;;;;;;;;;;;;;;;4901018;29;8495;-85
2022/06/08 05:19:10;;;;;;;;;;;;;;;;;;4900710;29;8791;-85
2022/06/08 05:21:37;;;;;;;;;;;;;;;;;;4899201;29;9116;-85
2022/06/08 05:24:03;;;;;;;;;;;;;;;;;;4900579;29;7135;-85
2022/06/08 05:26:28;;;;;;;;;;;;;;;;;;4900809;29;7418;-85
2022/06/08 05:28:54;;;;;;;;;;;;;;;;;;4900823;29;8790;-85
2022/06/08 05:31:19;;;;;;;;;;;;;;;;;;4897307;29;7134;-84
2022/06/08 05:33:45;;;;;;;;;;;;;;;;;;4897580;29;7255;-85
2022/06/08 05:36:11;;;;;;;;;;;;;;;;;;4881620;29;7316;-85
2022/06/08 05:38:36;;;;;;;;;;;;;;;;;;4896922;29;8607;-81
2022/06/08 05:41:02;;;;;;;;;;;;;;;;;;4896272;29;8441;-81
2022/06/08 05:43:27;;;;;;;;;;;;;;;;;;4896067;29;8464;-84
2022/06/08 05:45:53;;;;;;;;;;;;;;;;;;4896835;29;7093;-85
2022/06/08 05:48:19;;;;;;;;;;;;;;;;;;4896697;29;8490;-84
2022/06/08 05:50:46;;;;;;;;;;;;;;;;;;4898777;29;8514;-85
2022/06/08 05:53:13;;;;;;;;;;;;;;;;;;4899747;29;7276;-85
2022/06/08 05:55:39;;;;;;;;;;;;;;;;;;4899151;29;7298;-85
2022/06/08 05:58:04;;;;;;;;;;;;;;;;;;4898872;29;8816;-84
2022/06/08 06:00:33;;;;;;;;;;;;;;;;;;4898897;29;8497;-81
2022/06/08 06:02:59;;;;;;;;;;;;;;;;;;4899174;29;7127;-81
2022/06/08 06:05:28;;;;;;;;;;;;;;;;;;4895972;29;8378;-79
2022/06/08 06:07:56;;;;;;;;;;;;;;;;;;4880392;29;7211;-82
2022/06/08 06:10:22;;;;;;;;;;;;;;;;;;4882272;29;7329;-83
2022/06/08 06:12:48;;;;;;;;;;;;;;;;;;4897756;29;7537;-85
2022/06/08 06:15:15;;;;;;;;;;;;;;;;;;4898789;29;8866;-85
2022/06/08 06:17:41;;;;;;;;;;;;;;;;;;4899256;29;8585;-86
2022/06/08 06:20:07;;;;;;;;;;;;;;;;;;4898968;29;8357;-84
2022/06/08 06:22:33;;;;;;;;;;;;;;;;;;4898842;29;7263;-85
2022/06/08 06:24:59;;;;;;;;;;;;;;;;;;4899376;29;7120;-85
2022/06/08 06:27:24;;;;;;;;;;;;;;;;;;4898846;29;8465;-86
2022/06/08 06:29:51;;;;;;;;;;;;;;;;;;4898968;29;8401;-85
2022/06/08 06:32:27;;;;;;;;;;;;;;;;;;4898912;29;7166;-85
2022/06/08 06:34:54;;;;;;;;;;;;;;;;;;4898517;29;8431;-86
2022/06/08 06:37:20;;;;;;;;;;;;;;;;;;4898432;29;7133;-86
2022/06/08 06:39:46;;;;;;;;;;;;;;;;;;4898951;29;9119;-85
2022/06/08 06:42:17;;;;;;;;;;;;;;;;;;4854027;29;12118;-86
2022/06/08 06:44:43;;;;;;;;;;;;;;;;;;4898792;29;8828;-85
2022/06/08 06:47:09;;;;;;;;;;;;;;;;;;4899068;29;8529;-85
2022/06/08 06:49:34;;;;;;;;;;;;;;;;;;4898079;29;8412;-85
2022/06/08 06:52:00;;;;;;;;;;;;;;;;;;4898854;29;8724;-85
2022/06/08 06:54:25;;;;;;;;;;;;;;;;;;4898595;29;7151;-85
2022/06/08 06:56:51;;;;;;;;;;;;;;;;;;4897745;29;8554;-85
2022/06/08 06:59:16;;;;;;;;;;;;;;;;;;4898845;29;8630;-84
2022/06/08 07:01:42;;;;;;;;;;;;;;;;;;4898635;29;8476;-85
2022/06/08 07:04:07;;;;;;;;;;;;;;;;;;4849735;28;7133;-85
2022/06/08 07:06:33;;;;;;;;;;;;;;;;;;4898419;29;8395;-85
2022/06/08 07:09:01;;;;;;;;;;;;;;;;;;4898698;29;9374;-86
2022/06/08 07:11:40;;;;;;;;;;;;;;;;;;4897742;29;8518;-87
2022/06/08 07:14:07;;;;;;;;;;;;;;;;;;4901361;29;7274;-85
2022/06/08 07:16:34;;;;;;;;;;;;;;;;;;4907099;29;7102;-85
2022/06/08 07:19:00;;;;;;;;;;;;;;;;;;4907518;29;7160;-88
2022/06/08 07:21:26;;;;;;;;;;;;;;;;;;4899523;29;8548;-88
2022/06/08 07:23:53;;;;;;;;;;;;;;;;;;4898088;29;8450;-86
2022/06/08 07:26:19;;;;;;;;;;;;;;;;;;4897662;29;8729;-86
2022/06/08 07:28:44;;;;;;;;;;;;;;;;;;4898219;29;8391;-87
2022/06/08 07:31:12;;;;;;;;;;;;;;;;;;4897504;29;6895;-86
2022/06/08 07:33:38;;;;;;;;;;;;;;;;;;4897939;29;7212;-87
2022/06/08 07:36:03;;;;;;;;;;;;;;;;;;4897421;29;8641;-86
2022/06/08 07:38:29;;;;;;;;;;;;;;;;;;4898035;29;8464;-86
2022/06/08 07:40:55;;;;;;;;;;;;;;;;;;4897088;29;8600;-86
2022/06/08 07:43:21;;;;;;;;;;;;;;;;;;4897456;29;8621;-85
2022/06/08 07:45:47;;;;;;;;;;;;;;;;;;4897476;29;8483;-85
2022/06/08 07:50:57;;;;;;;;;;;;;;;;;;4898774;29;6904;-85
2022/06/08 07:53:23;;;;;;;;;;;;;;;;;;4897370;29;8572;-86
2022/06/08 07:55:49;;;;;;;;;;;;;;;;;;4897805;29;8709;-86
2022/06/08 07:58:15;;;;;;;;;;;;;;;;;;4898850;29;9061;-86
2022/06/08 08:00:46;;;;;;;;;;;;;;;;;;4898621;29;8547;-86
2022/06/08 08:03:14;;;;;;;;;;;;;;;;;;4898368;29;7158;-86
2022/06/08 08:05:40;;;;;;;;;;;;;;;;;;4898476;29;7149;-86
2022/06/08 08:08:06;;;;;;;;;;;;;;;;;;4898980;29;7287;-86
2022/06/08 08:10:32;;;;;;;;;;;;;;;;;;4897802;29;8492;-86
2022/06/08 08:12:59;;;;;;;;;;;;;;;;;;4897621;29;7446;-86
2022/06/08 08:15:25;;;;;;;;;;;;;;;;;;4897684;29;7272;-85
2022/06/08 08:17:51;;;;;;;;;;;;;;;;;;4897671;29;8844;-86
2022/06/08 08:20:18;;;;;;;;;;;;;;;;;;4898271;29;9026;-86
2022/06/08 08:22:46;;;;;;;;;;;;;;;;;;4898323;29;8446;-86
2022/06/08 08:25:12;;;;;;;;;;;;;;;;;;4898299;29;7224;-81
2022/06/08 08:27:38;;;;;;;;;;;;;;;;;;4897791;29;8557;-84
2022/06/08 08:30:05;;;;;;;;;;;;;;;;;;4891864;29;7152;-85
2022/06/08 08:32:30;;;;;;;;;;;;;;;;;;4895465;29;7484;-85
2022/06/08 08:34:56;;;;;;;;;;;;;;;;;;4897729;29;8549;-85
2022/06/08 08:37:21;;;;;;;;;;;;;;;;;;4899376;29;7574;-85
2022/06/08 08:39:47;;;;;;;;;;;;;;;;;;4897925;29;8495;-85
2022/06/08 08:42:21;;;;;;;;;;;;;;;;;;4897374;29;7125;-85
2022/06/08 08:44:54;;;;;;;;;;;;;;;;;;4897693;29;8777;-85
2022/06/08 08:47:24;;;;;;;;;;;;;;;;;;4898109;29;8394;-85
2022/06/08 08:49:55;;;;;;;;;;;;;;;;;;4898175;29;8810;-85
2022/06/08 08:52:26;;;;;;;;;;;;;;;;;;4898178;29;8592;-85
2022/06/08 08:55:04;;;;;;;;;;;;;;;;;;4897894;29;7385;-85
2022/06/08 08:57:38;;;;;;;;;;;;;;;;;;4879005;29;8440;-81
2022/06/08 09:00:17;;;;;;;;;;;;;;;;;;4880597;29;8581;-81
2022/06/08 09:05:29;;;;;;;;;;;;;;;;;;4881588;29;6911;-81
2022/06/08 09:07:56;;;;;;;;;;;;;;;;;;4879965;29;8975;-85
2022/06/08 09:10:24;;;;;;;;;;;;;;;;;;4882999;29;8450;-85
2022/06/08 09:12:53;;;;;;;;;;;;;;;;;;4883711;29;8510;-85
2022/06/08 09:15:38;;;;;;;;;;;;;;;;;;4900986;29;7155;-84
2022/06/08 09:18:05;;;;;;;;;;;;;;;;;;4898321;29;7292;-85
2022/06/08 09:20:33;;;;;;;;;;;;;;;;;;4898676;29;7190;-85
2022/06/08 09:23:05;;;;;;;;;;;;;;;;;;4898307;29;7201;-84
2022/06/08 09:25:34;;;;;;;;;;;;;;;;;;4898231;29;6943;-85
2022/06/08 09:28:01;;;;;;;;;;;;;;;;;;4898618;29;8652;-85
2022/06/08 09:30:31;;;;;;;;;;;;;;;;;;4897930;29;8668;-85
2022/06/08 09:32:59;;;;;;;;;;;;;;;;;;4898244;29;8559;-85
2022/06/08 09:35:31;;;;;;;;;;;;;;;;;;4898359;29;8521;-85
2022/06/08 09:37:59;;;;;;;;;;;;;;;;;;4898192;29;7259;-85
2022/06/08 09:40:37;;;;;;;;;;;;;;;;;;4898564;29;8578;-85
2022/06/08 09:43:23;;;;;;;;;;;;;;;;;;4900044;29;8932;-85
2022/06/08 09:45:48;;;;;;;;;;;;;;;;;;4899678;29;7189;-81
2022/06/08 09:51:35;;;;;;;;;;;;;;;;;;4900153;29;6988;-81
2022/06/08 09:54:15;;;;;;;;;;;;;;;;;;4899590;29;8795;-81
2022/06/08 09:57:00;;;;;;;;;;;;;;;;;;4899090;29;7297;-81
2022/06/08 09:59:37;;;;;;;;;;;;;;;;;;4899021;29;7550;-81
2022/06/08 10:02:09;;;;;;;;;;;;;;;;;;4899142;29;8896;-81
2022/06/08 10:04:37;;;;;;;;;;;;;;;;;;4899574;29;8860;-81
2022/06/08 10:07:12;;;;;;;;;;;;;;;;;;4898969;29;7464;-81
2022/06/08 10:09:58;;;;;;;;;;;;;;;;;;4898460;29;7185;-81
2022/06/08 10:12:24;;;;;;;;;;;;;;;;;;4898780;29;8561;-80
2022/06/08 10:14:52;;;;;;;;;;;;;;;;;;4899259;29;8825;-80
2022/06/08 10:17:26;;;;;;;;;;;;;;;;;;4898740;29;8817;-81
2022/06/08 10:20:04;;;;;;;;;;;;;;;;;;4898275;29;8554;-81
2022/06/08 10:22:35;;;;;;;;;;;;;;;;;;4899028;29;8768;-82
2022/06/08 10:25:07;;;;;;;;;;;;;;;;;;4899579;29;8535;-84
2022/06/08 10:27:42;;;;;;;;;;;;;;;;;;4899686;29;8553;-85
2022/06/08 10:30:10;;;;;;;;;;;;;;;;;;4899824;29;7180;-86
2022/06/08 10:32:45;;;;;;;;;;;;;;;;;;4898543;29;8528;-81
2022/06/08 10:35:22;;;;;;;;;;;;;;;;;;4899009;29;8855;-82
2022/06/08 10:37:49;;;;;;;;;;;;;;;;;;4898972;29;9089;-84
2022/06/08 10:40:18;;;;;;;;;;;;;;;;;;4914884;29;7164;-85
2022/06/08 10:42:46;;;;;;;;;;;;;;;;;;4898332;29;9091;-84
2022/06/08 10:45:23;;;;;;;;;;;;;;;;;;4898399;29;7350;-79
2022/06/08 10:48:03;;;;;;;;;;;;;;;;;;4898029;29;8518;-83
2022/06/08 10:50:34;;;;;;;;;;;;;;;;;;4899714;29;8569;-83
2022/06/08 10:56:23;;;;;;;;;;;;;;;;;;4898336;29;6904;-86
2022/06/08 10:59:07;;;;;;;;;;;;;;;;;;4897723;29;8832;-83
2022/06/08 11:01:46;;;;;;;;;;;;;;;;;;4897968;29;8506;-83
2022/06/08 11:04:27;;;;;;;;;;;;;;;;;;4897703;29;8808;-83
2022/06/08 11:06:57;;;;;;;;;;;;;;;;;;4897712;29;7211;-83
2022/06/08 11:09:34;;;;;;;;;;;;;;;;;;4898120;29;7292;-83
2022/06/08 11:12:04;;;;;;;;;;;;;;;;;;4898714;29;8649;-83
2022/06/08 11:14:52;;;;;;;;;;;;;;;;;;4898052;29;8723;-84
2022/06/08 11:17:38;;;;;;;;;;;;;;;;;;4897959;29;8527;-82
2022/06/08 11:20:06;;;;;;;;;;;;;;;;;;4898368;29;8831;-82
2022/06/08 11:22:41;;;;;;;;;;;;;;;;;;4898942;29;7147;-81
2022/06/08 11:25:12;;;;;;;;;;;;;;;;;;4898705;29;8569;-81
2022/06/08 11:27:39;;;;;;;;;;;;;;;;;;4898886;29;7182;-83
2022/06/08 11:30:30;;;;;;;;;;;;;;;;;;4898572;29;8541;-81
2022/06/08 11:32:57;;;;;;;;;;;;;;;;;;4898425;29;8552;-80
2022/06/08 11:35:23;;;;;;;;;;;;;;;;;;4898025;29;7169;-81
2022/06/08 11:37:59;;;;;;;;;;;;;;;;;;4898232;29;8668;-84
2022/06/08 11:40:27;;;;;;;;;;;;;;;;;;4898297;29;8721;-84
2022/06/08 11:43:15;;;;;;;;;;;;;;;;;;4898874;29;8573;-84
2022/06/08 11:45:44;;;;;;;;;;;;;;;;;;4898025;29;7147;-84
2022/06/08 11:48:13;;;;;;;;;;;;;;;;;;4898500;29;6915;-84
2022/06/08 11:50:48;;;;;;;;;;;;;;;;;;4898449;29;8688;-84
2022/06/08 11:53:18;;;;;;;;;;;;;;;;;;4898600;29;7147;-84
2022/06/08 11:56:02;;;;;;;;;;;;;;;;;;4898349;29;8515;-80
2022/06/08 11:58:30;;;;;;;;;;;;;;;;;;4898149;29;8432;-80
2022/06/08 12:00:58;;;;;;;;;;;;;;;;;;4898402;29;8956;-81
2022/06/08 12:03:24;;;;;;;;;;;;;;;;;;4898751;29;7166;-80
2022/06/08 12:05:51;;;;;;;;;;;;;;;;;;4893664;29;7370;-84
2022/06/08 12:08:34;;;;;;;;;;;;;;;;;;4898125;29;7286;-84
2022/06/08 12:11:02;;;;;;;;;;;;;;;;;;4897640;29;7162;-83
2022/06/08 12:13:27;;;;;;;;;;;;;;;;;;4898256;29;8861;-82
2022/06/08 12:16:01;;;;;;;;;;;;;;;;;;4894884;29;7137;-83
2022/06/08 12:18:30;;;;;;;;;;;;;;;;;;4897497;29;9507;-83
2022/06/08 12:21:20;;;;;;;;;;;;;;;;;;4897501;29;8561;-83
2022/06/08 12:24:15;;;;;;;;;;;;;;;;;;4897539;29;8476;-83
2022/06/08 12:26:45;;;;;;;;;;;;;;;;;;4897287;29;7216;-82
2022/06/08 12:29:17;;;;;;;;;;;;;;;;;;4897008;29;8712;-84
2022/06/08 12:31:43;;;;;;;;;;;;;;;;;;4900229;29;7727;-83
2022/06/08 12:34:25;;;;;;;;;;;;;;;;;;4900500;29;7515;-83
2022/06/08 12:36:50;;;;;;;;;;;;;;;;;;4900672;29;8896;-83
2022/06/08 12:39:18;;;;;;;;;;;;;;;;;;4901312;29;7152;-84
2022/06/08 12:41:43;;;;;;;;;;;;;;;;;;4901140;29;8619;-83
2022/06/08 12:44:16;;;;;;;;;;;;;;;;;;4900528;29;7502;-84
2022/06/08 12:46:48;;;;;;;;;;;;;;;;;;4901492;29;8600;-84
2022/06/08 12:49:19;;;;;;;;;;;;;;;;;;4897545;29;7144;-82
2022/06/08 12:51:48;;;;;;;;;;;;;;;;;;4899063;29;7185;-83
2022/06/08 12:54:19;;;;;;;;;;;;;;;;;;4899258;29;8590;-83
2022/06/08 12:56:47;;;;;;;;;;;;;;;;;;4898630;29;7168;-83
2022/06/08 12:59:13;;;;;;;;;;;;;;;;;;4898844;29;7151;-84
2022/06/08 13:01:40;;;;;;;;;;;;;;;;;;4898883;29;7280;-83
2022/06/08 13:04:06;;;;;;;;;;;;;;;;;;4898354;29;8637;-83
2022/06/08 13:06:32;;;;;;;;;;;;;;;;;;4898447;29;8977;-83
2022/06/08 13:08:58;;;;;;;;;;;;;;;;;;4898632;29;9017;-83
2022/06/08 13:11:25;;;;;;;;;;;;;;;;;;4897820;29;9016;-83
2022/06/08 13:13:55;;;;;;;;;;;;;;;;;;4898394;29;6925;-83
2022/06/08 13:16:26;;;;;;;;;;;;;;;;;;4898353;29;8987;-83
2022/06/08 13:18:53;;;;;;;;;;;;;;;;;;4898127;29;8759;-83
2022/06/08 13:21:19;;;;;;;;;;;;;;;;;;4898208;29;7149;-82
2022/06/08 13:23:46;;;;;;;;;;;;;;;;;;4898889;29;8807;-82
2022/06/08 13:26:17;;;;;;;;;;;;;;;;;;4897875;29;8464;-83
2022/06/08 13:28:42;;;;;;;;;;;;;;;;;;4897859;29;9062;-82
2022/06/08 13:31:09;;;;;;;;;;;;;;;;;;4898243;29;8479;-83
2022/06/08 13:36:25;;;;;;;;;;;;;;;;;;4899327;29;6905;-83
2022/06/08 13:38:59;;;;;;;;;;;;;;;;;;4898414;29;7349;-82
2022/06/08 13:41:25;;;;;;;;;;;;;;;;;;4899377;29;7140;-82
2022/06/08 13:43:50;;;;;;;;;;;;;;;;;;4899608;29;9438;-82
2022/06/08 13:46:23;;;;;;;;;;;;;;;;;;4899386;29;8468;-82
2022/06/08 13:48:50;;;;;;;;;;;;;;;;;;4898338;29;7196;-83
2022/06/08 13:51:16;;;;;;;;;;;;;;;;;;4899245;29;8541;-83
2022/06/08 13:53:41;;;;;;;;;;;;;;;;;;4898729;29;8711;-82
2022/06/08 13:56:07;;;;;;;;;;;;;;;;;;4898689;29;8756;-82
2022/06/08 13:58:32;;;;;;;;;;;;;;;;;;4899859;29;7231;-83
2022/06/08 14:01:01;;;;;;;;;;;;;;;;;;4899605;29;8570;-82
2022/06/08 14:03:30;;;;;;;;;;;;;;;;;;4898868;29;8519;-82
2022/06/08 14:14:13;;;;;;;;;;;;;;;;;;4901221;29;6893;-83
2022/06/08 14:16:42;;;;;;;;;;;;;;;;;;4899763;29;7203;-83
2022/06/08 14:19:15;;;;;;;;;;;;;;;;;;4899703;29;7132;-84
2022/06/08 14:21:42;;;;;;;;;;;;;;;;;;4900359;29;8865;-84
2022/06/08 14:24:16;;;;;;;;;;;;;;;;;;4900321;29;7285;-83
2022/06/08 14:26:42;;;;;;;;;;;;;;;;;;4897515;29;7380;-85
2022/06/08 14:29:07;;;;;;;;;;;;;;;;;;4895915;29;8649;-84
2022/06/08 14:31:36;;;;;;;;;;;;;;;;;;4900022;29;8402;-84
2022/06/08 14:34:11;;;;;;;;;;;;;;;;;;4899926;29;8437;-83
2022/06/08 14:36:36;;;;;;;;;;;;;;;;;;4900176;29;8688;-84
2022/06/08 14:39:03;;;;;;;;;;;;;;;;;;4899748;29;8487;-84
2022/06/08 14:41:37;;;;;;;;;;;;;;;;;;4899887;29;8441;-83
2022/06/08 14:44:07;;;;;;;;;;;;;;;;;;4901138;29;8416;-83
2022/06/08 14:46:35;;;;;;;;;;;;;;;;;;4900016;29;7305;-83
2022/06/08 14:49:01;;;;;;;;;;;;;;;;;;4897410;29;8600;-84
2022/06/08 14:51:26;;;;;;;;;;;;;;;;;;4899588;29;7234;-84
2022/06/08 14:53:52;;;;;;;;;;;;;;;;;;4898609;29;8946;-83
2022/06/08 14:56:26;;;;;;;;;;;;;;;;;;4899042;29;8971;-84
2022/06/08 14:59:01;;;;;;;;;;;;;;;;;;4899294;29;7122;-83
2022/06/08 15:01:29;;;;;;;;;;;;;;;;;;4899202;29;8528;-83
2022/06/08 15:03:55;;;;;;;;;;;;;;;;;;4897991;29;7511;-83
2022/06/08 15:06:22;;;;;;;;;;;;;;;;;;4899424;29;8873;-83
2022/06/08 15:08:48;;;;;;;;;;;;;;;;;;4898778;29;8471;-83
2022/06/08 15:14:15;;;;;;;;;;;;;;;;;;4900230;29;7075;-84
2022/06/08 15:16:40;;;;;;;;;;;;;;;;;;4898885;29;8481;-84
2022/06/08 15:19:14;;;;;;;;;;;;;;;;;;4898803;29;8692;-83
2022/06/08 15:21:40;;;;;;;;;;;;;;;;;;4898723;29;8534;-84
2022/06/08 15:24:06;;;;;;;;;;;;;;;;;;4898763;29;7173;-83
2022/06/08 15:26:32;;;;;;;;;;;;;;;;;;4898950;29;8857;-84
2022/06/08 15:28:58;;;;;;;;;;;;;;;;;;4898954;29;8528;-84
2022/06/08 15:31:23;;;;;;;;;;;;;;;;;;4899499;29;8367;-83
2022/06/08 15:33:48;;;;;;;;;;;;;;;;;;4895412;29;9966;-83
2022/06/08 15:36:19;;;;;;;;;;;;;;;;;;4898192;29;8891;-83
2022/06/08 15:38:46;;;;;;;;;;;;;;;;;;4898193;29;8543;-79
2022/06/08 15:41:12;;;;;;;;;;;;;;;;;;4898435;29;7145;-83
2022/06/08 15:43:38;;;;;;;;;;;;;;;;;;4898809;29;8644;-83
2022/06/08 15:46:04;;;;;;;;;;;;;;;;;;4898757;29;8589;-83
2022/06/08 15:48:31;;;;;;;;;;;;;;;;;;4898678;29;8428;-83
2022/06/08 15:51:00;;;;;;;;;;;;;;;;;;4898941;29;8926;-84
2022/06/08 15:53:35;;;;;;;;;;;;;;;;;;4898515;29;8867;-83
2022/06/08 15:56:07;;;;;;;;;;;;;;;;;;4899001;29;8527;-83
2022/06/08 15:58:33;;;;;;;;;;;;;;;;;;4898140;29;8767;-83
2022/06/08 16:00:59;;;;;;;;;;;;;;;;;;4898552;29;8422;-83
2022/06/08 16:03:25;;;;;;;;;;;;;;;;;;4899030;29;8542;-83
2022/06/08 16:05:50;;;;;;;;;;;;;;;;;;4898034;29;8583;-83
2022/06/08 16:08:17;;;;;;;;;;;;;;;;;;4811789;29;12077;-84
2022/06/08 16:10:43;;;;;;;;;;;;;;;;;;4893053;29;7161;-80
2022/06/08 16:13:12;;;;;;;;;;;;;;;;;;4898281;29;8788;-79
2022/06/08 16:15:38;;;;;;;;;;;;;;;;;;4898217;29;7537;-80
2022/06/08 16:18:03;;;;;;;;;;;;;;;;;;4898485;29;9096;-81
2022/06/08 16:20:33;;;;;;;;;;;;;;;;;;4898176;29;8596;-81
2022/06/08 16:22:59;;;;;;;;;;;;;;;;;;4898457;29;7167;-82
2022/06/08 16:25:26;;;;;;;;;;;;;;;;;;4898278;29;7277;-83
2022/06/08 16:27:52;;;;;;;;;;;;;;;;;;4897820;29;7265;-80
2022/06/08 16:30:20;;;;;;;;;;;;;;;;;;4898812;29;8494;-81
2022/06/08 16:32:46;;;;;;;;;;;;;;;;;;4839201;28;11959;-81
2022/06/08 16:35:11;;;;;;;;;;;;;;;;;;4897057;29;8628;-83
2022/06/08 16:37:37;;;;;;;;;;;;;;;;;;4897972;29;8480;-82
2022/06/08 16:40:09;;;;;;;;;;;;;;;;;;4898313;29;8767;-82
2022/06/08 16:42:34;;;;;;;;;;;;;;;;;;4870548;29;11999;-83
2022/06/08 16:45:00;;;;;;;;;;;;;;;;;;4897648;29;8520;-83
2022/06/08 16:47:25;;;;;;;;;;;;;;;;;;4898495;29;7227;-83
2022/06/08 16:49:51;;;;;;;;;;;;;;;;;;4898180;29;9425;-82
2022/06/08 16:52:16;;;;;;;;;;;;;;;;;;4897919;29;8843;-83
2022/06/08 16:54:42;;;;;;;;;;;;;;;;;;4897954;29;8532;-83
2022/06/08 16:59:51;;;;;;;;;;;;;;;;;;4899063;29;7130;-85
2022/06/08 17:02:19;;;;;;;;;;;;;;;;;;4897811;29;7167;-85
2022/06/08 17:04:47;;;;;;;;;;;;;;;;;;4897639;29;8737;-84
2022/06/08 17:07:14;;;;;;;;;;;;;;;;;;4897655;29;8552;-85
2022/06/08 17:09:42;;;;;;;;;;;;;;;;;;4898086;29;8624;-84
2022/06/08 17:12:09;;;;;;;;;;;;;;;;;;4848897;29;7133;-84
2022/06/08 17:14:35;;;;;;;;;;;;;;;;;;4896362;29;8805;-84
2022/06/08 17:17:02;;;;;;;;;;;;;;;;;;4896900;29;8548;-84
2022/06/08 17:19:27;;;;;;;;;;;;;;;;;;4900629;29;8530;-84
2022/06/08 17:21:53;;;;;;;;;;;;;;;;;;4900489;29;8626;-84
2022/06/08 17:24:19;;;;;;;;;;;;;;;;;;4900396;29;8514;-84
2022/06/08 17:26:45;;;;;;;;;;;;;;;;;;4900600;29;8841;-83
2022/06/08 17:29:11;;;;;;;;;;;;;;;;;;4900624;29;8536;-83
2022/06/08 17:31:37;;;;;;;;;;;;;;;;;;4900107;29;8723;-84
2022/06/08 17:34:03;;;;;;;;;;;;;;;;;;4900942;29;7102;-84
2022/06/08 17:36:29;;;;;;;;;;;;;;;;;;4900824;29;8496;-83
2022/06/08 17:38:54;;;;;;;;;;;;;;;;;;4901139;29;8416;-83
2022/06/08 17:41:20;;;;;;;;;;;;;;;;;;4901312;29;7229;-84
2022/06/08 17:43:45;;;;;;;;;;;;;;;;;;4901468;29;7499;-84
2022/06/08 17:46:11;;;;;;;;;;;;;;;;;;4901830;29;7108;-84
2022/06/08 17:48:38;;;;;;;;;;;;;;;;;;4901075;29;7305;-84